Neptune, Iowa
Current Conditions -  °F | °C
As of 12:35 PM on Monday 20 Oct 2014 (Local Time) from KLRJ Reporting Station
Clear Clear  
Wind Chill: 66°   Ceiling: Unl
Heat Index: 66°   Visibility: 10mi
Dew Point: 41°   Wind: 9mph
Humidity: 40%   Direction: 340°NNW
Pressure: 30.09"   Gusts: 15mph
Location:  42.6065°N, 96.2694°W
Report Text: KLRJ 201735Z AUTO 34008G13KT 10SM CLR 19/05 A3009 RMK AO2
Loading
Personal Weather Stations






























Interactive Weather Map
Tropical Storm Tracking
New forecast layout! Learn more

10-Day Weather Forecast

Advertisements
Track Severe Weather on mobile